Flaxville, MT (59222)

7:43 PM MDT on May 28, 2015 (GMT -0600)
MesoWest | | Change Station
CLOSE
Current Station
Personal Weather Station
Location: Flaxville, MT
Elevation: 2627 ft
Nearby Weather Stations

Elev 2627 ft 48.58 °N, 104.99 °W | Updated 40 minutes ago

Mostly Cloudy
Mostly Cloudy
54 °F
Feels Like 54 °F
N
0
Wind Variable Wind from North
Gusts 0.0 mph

Today
High -- | Low -- °F
--% Chance of Precip.
Yesterday
High -- | Low -- °F
Precip. -- in
5:05 AM 8:50 PM
Waxing Gibbous, 80% visible
Pressure 30.07 in
Visibility 10.0 miles
Clouds Few 11000 ft
Dew Point 46 °F
Humidity 77%
Rainfall in
Snow Depth Not available.
UV 1 out of 12
Pollen 7.20 out of 12
Air Quality Not available.
Flu Activity Sporadic
METAR KOLF 290053Z AUTO 01018G24KT 10SM FEW110 16/11 A3006 RMK AO2 RAE23 SLP181 P0001 T01560111

More Conditions Fewer Conditions

Pressure 30.07 in
Visibility 10.0 miles
Clouds Few 11000 ft
Dew Point 46 °F
Humidity 77%
Rainfall in
Snow Depth Not available.
UV 1 out of 12
Pollen 7.20 out of 12
Air Quality Not available.
Flu Activity Sporadic
METAR KOLF 290053Z AUTO 01018G24KT 10SM FEW110 16/11 A3006 RMK AO2 RAE23 SLP181 P0001 T01560111

More Conditions Fewer Conditions

10-Day Weather Forecast

Almanac

Astronomy

May. 28, 2015 Rise Set
Actual Time
Civil Twilight
Nautical Twilight
Astronomical Twilight
Moon
Length of Visible Light
Length of Day
Tomorrow will be .
, % of the Moon is Illuminated

Today's Extremes

State Highs State Lows

Community

WunderPhotos

Upload Photos

1,825,122 photos uploaded!

WunderBlogs® & News

Nearby

Air Quality

  Air Quality AQ Index Pollutant
Not available.

Snow Depth

Station Depth Elevation

Earthquake Activity

City Distance Mag. Time & Date
Minimum magnitude displayed is 2.5.

Coastal Water Temperatures

Place Temperature

Stations

Nearby Weather Stations

Station Location Temp. Windchill Dew Point Humidity Wind Precip. Elev Updated Type